Time;durP1;ratioP1;P1;durP2;ratioP2;P2;SDS_P1;SDS_P2;PMS_P1;PMS_P2;Temp;Humidity;BMP_temperature;BMP_pressure;BME280_temperature;BME280_humidity;BME280_pressure;Samples;Min_cycle;Max_cycle;Signal;HPM_P1;HPM_P2
2022/04/05 00:00:58;;;;;;;3.22;1.10;;;13.30;67.10;;;;;;4994343;28;20069;-73
2022/04/05 00:03:24;;;;;;;4.28;0.68;;;13.30;67.10;;;;;;4978889;28;20133;-74
2022/04/05 00:05:50;;;;;;;5.30;1.00;;;13.30;67.00;;;;;;4996556;28;20484;-73
2022/04/05 00:08:16;;;;;;;4.07;0.60;;;13.20;67.00;;;;;;4995784;28;20042;-75
2022/04/05 00:10:43;;;;;;;2.17;0.52;;;13.20;67.00;;;;;;4979529;28;20402;-74
2022/04/05 00:13:08;;;;;;;6.05;0.90;;;13.20;67.10;;;;;;4996725;28;20457;-73
2022/04/05 00:15:35;;;;;;;4.93;0.63;;;13.20;67.10;;;;;;4995939;28;20066;-73
2022/04/05 00:18:02;;;;;;;7.47;1.20;;;13.10;67.10;;;;;;4995917;28;20050;-75
2022/04/05 00:20:28;;;;;;;3.72;0.90;;;13.10;67.20;;;;;;4978691;28;20051;-72
2022/04/05 00:22:54;;;;;;;3.88;0.75;;;13.10;67.10;;;;;;4963037;28;20129;-73
2022/04/05 00:25:20;;;;;;;4.72;0.77;;;13.10;67.10;;;;;;4996002;28;20050;-75
2022/04/05 00:27:47;;;;;;;2.92;0.65;;;13.10;67.20;;;;;;4979266;28;20050;-73
2022/04/05 00:30:15;;;;;;;4.47;0.82;;;13.10;67.10;;;;;;4979029;28;20110;-72
2022/04/05 00:32:41;;;;;;;5.30;0.77;;;13.10;67.00;;;;;;4978350;28;20096;-73
2022/04/05 00:35:08;;;;;;;5.65;1.20;;;13.10;67.10;;;;;;4995646;28;20046;-74
2022/04/05 00:37:34;;;;;;;3.97;0.70;;;13.10;67.00;;;;;;4979005;28;20477;-72
2022/04/05 00:40:00;;;;;;;2.92;1.05;;;13.00;67.10;;;;;;4996017;28;20115;-72
2022/04/05 00:42:26;;;;;;;5.00;1.38;;;13.00;67.10;;;;;;4995758;28;20049;-73
2022/04/05 00:44:52;;;;;;;6.45;0.95;;;13.00;67.10;;;;;;4995881;28;20058;-74
2022/04/05 00:47:20;;;;;;;4.95;0.82;;;13.00;67.10;;;;;;4978424;28;20129;-74
2022/04/05 00:49:47;;;;;;;4.53;1.23;;;13.00;67.10;;;;;;4978644;28;20051;-73
2022/04/05 00:52:15;;;;;;;4.22;0.77;;;13.00;67.30;;;;;;4996324;28;20053;-73
2022/04/05 00:54:43;;;;;;;3.50;0.77;;;13.00;67.40;;;;;;4995753;28;20050;-73
2022/04/05 00:57:12;;;;;;;4.07;0.75;;;13.00;67.40;;;;;;4979375;28;20413;-73
2022/04/05 00:59:41;;;;;;;7.32;1.38;;;12.90;67.40;;;;;;4995496;28;20054;-74
2022/04/05 01:02:13;;;;;;;5.30;1.25;;;13.00;67.50;;;;;;4978444;28;20099;-74
2022/04/05 01:04:44;;;;;;;7.80;0.98;;;13.00;67.50;;;;;;4995840;28;20058;-73
2022/04/05 01:07:15;;;;;;;6.50;1.05;;;13.00;67.60;;;;;;4995499;28;20097;-74
2022/04/05 01:09:41;;;;;;;6.38;0.63;;;13.00;67.50;;;;;;4978677;28;20062;-74
2022/04/05 01:12:09;;;;;;;5.15;1.02;;;13.10;67.40;;;;;;4995700;28;20054;-73
2022/04/05 01:14:36;;;;;;;4.82;0.73;;;13.10;67.40;;;;;;4978264;28;20125;-74
2022/04/05 01:17:03;;;;;;;4.00;0.85;;;13.10;67.50;;;;;;4995194;28;20046;-71
2022/04/05 01:19:30;;;;;;;6.85;1.00;;;13.10;67.60;;;;;;4978584;28;20050;-73
2022/04/05 01:21:56;;;;;;;5.00;1.00;;;13.00;67.50;;;;;;4995443;28;20119;-74
2022/04/05 01:24:22;;;;;;;7.20;0.93;;;13.00;67.50;;;;;;4994176;28;20521;-74
2022/04/05 01:26:52;;;;;;;5.97;1.10;;;13.00;67.50;;;;;;4988677;28;20061;-74
2022/04/05 01:29:20;;;;;;;6.20;1.48;;;13.10;67.60;;;;;;4999085;28;20353;-75
2022/04/05 01:31:54;;;;;;;7.15;1.27;;;13.00;67.50;;;;;;4981804;28;20046;-72
2022/04/05 01:34:22;;;;;;;7.63;1.42;;;13.00;67.60;;;;;;4982690;28;20054;-72
2022/04/05 01:36:50;;;;;;;4.82;0.90;;;13.00;67.50;;;;;;4999146;28;20050;-73
2022/04/05 01:39:17;;;;;;;7.45;1.27;;;13.10;67.50;;;;;;4981723;28;20061;-76
2022/04/05 01:41:43;;;;;;;6.43;1.20;;;13.10;67.50;;;;;;4981568;28;20129;-73
2022/04/05 01:44:10;;;;;;;6.93;1.38;;;13.00;67.50;;;;;;4998718;28;20098;-74
2022/04/05 01:46:38;;;;;;;6.28;1.50;;;13.00;67.60;;;;;;4981620;28;20050;-72
2022/04/05 01:49:08;;;;;;;5.60;1.02;;;13.00;67.70;;;;;;4981751;28;20054;-74
2022/04/05 01:51:36;;;;;;;4.65;0.70;;;12.90;67.70;;;;;;4978278;28;20105;-72
2022/04/05 01:54:07;;;;;;;7.03;1.33;;;12.90;67.80;;;;;;4967844;28;20413;-72
2022/04/05 01:56:34;;;;;;;6.90;0.82;;;12.90;67.80;;;;;;4988036;28;20093;-73
2022/04/05 01:59:01;;;;;;;6.18;1.20;;;12.90;67.90;;;;;;4992377;28;20134;-72
2022/04/05 02:01:26;;;;;;;6.65;0.75;;;12.90;68.00;;;;;;5000467;28;20049;-72
2022/04/05 02:03:52;;;;;;;8.60;1.40;;;12.90;67.90;;;;;;5007360;28;20046;-73
2022/04/05 02:06:19;;;;;;;8.52;1.20;;;12.90;67.90;;;;;;4981502;28;20060;-73
2022/04/05 02:08:45;;;;;;;7.75;1.25;;;12.90;67.80;;;;;;4998342;28;20343;-73
2022/04/05 02:11:10;;;;;;;4.70;0.88;;;12.90;67.80;;;;;;4981260;28;20104;-75
2022/04/05 02:13:36;;;;;;;7.07;1.58;;;12.90;67.80;;;;;;4981347;28;20145;-75
2022/04/05 02:16:03;;;;;;;4.57;1.38;;;12.90;67.80;;;;;;4998392;28;20335;-74
2022/04/05 02:18:29;;;;;;;6.57;1.23;;;12.90;67.80;;;;;;4981180;28;20054;-72
2022/04/05 02:20:56;;;;;;;6.90;1.20;;;12.90;67.90;;;;;;4998147;28;20061;-72
2022/04/05 02:23:21;;;;;;;5.95;0.93;;;12.80;67.90;;;;;;4997954;28;20129;-72
2022/04/05 02:25:47;;;;;;;6.60;1.08;;;12.80;67.90;;;;;;4997940;28;20561;-75
2022/04/05 02:28:14;;;;;;;6.88;1.63;;;12.80;68.00;;;;;;4998665;28;20218;-73
2022/04/05 02:30:41;;;;;;;5.20;1.17;;;12.80;68.00;;;;;;4981702;28;20056;-74
2022/04/05 02:33:07;;;;;;;3.67;0.60;;;12.80;68.10;;;;;;4981131;28;20113;-74
2022/04/05 02:35:33;;;;;;;5.47;1.05;;;12.80;68.10;;;;;;4996027;28;20046;-74
2022/04/05 02:38:02;;;;;;;8.75;1.17;;;12.80;68.10;;;;;;4998089;28;20068;-74
2022/04/05 02:40:28;;;;;;;3.30;0.63;;;12.80;68.10;;;;;;4981249;28;20124;-75
2022/04/05 02:42:54;;;;;;;7.55;1.35;;;12.80;68.10;;;;;;4997559;28;20054;-72
2022/04/05 02:45:20;;;;;;;6.20;1.08;;;12.80;68.10;;;;;;4980854;28;20133;-73
2022/04/05 02:47:46;;;;;;;6.65;1.42;;;12.90;68.10;;;;;;4980847;28;20429;-74
2022/04/05 02:50:14;;;;;;;7.28;1.10;;;12.80;67.90;;;;;;4980465;28;20056;-73
2022/04/05 02:52:40;;;;;;;6.88;1.10;;;12.80;68.00;;;;;;4997322;28;20121;-73
2022/04/05 02:55:06;;;;;;;8.75;1.85;;;12.80;68.10;;;;;;4997479;28;20046;-74
2022/04/05 02:57:36;;;;;;;4.20;0.90;;;12.80;68.10;;;;;;4980852;28;20042;-72
2022/04/05 03:00:03;;;;;;;4.20;1.05;;;12.80;68.10;;;;;;4980432;28;20384;-72
2022/04/05 03:02:29;;;;;;;7.75;1.63;;;12.80;68.00;;;;;;4980469;28;20477;-73
2022/04/05 03:04:55;;;;;;;8.23;1.48;;;12.80;68.10;;;;;;4996877;28;20042;-74
2022/04/05 03:07:20;;;;;;;6.75;1.52;;;12.80;68.10;;;;;;4980589;28;20450;-73
2022/04/05 03:09:46;;;;;;;7.60;1.17;;;12.80;68.10;;;;;;4980462;28;20121;-74
2022/04/05 03:12:12;;;;;;;5.47;1.05;;;12.80;68.20;;;;;;4980346;28;20361;-73
2022/04/05 03:14:39;;;;;;;5.97;0.90;;;12.70;68.10;;;;;;4980164;28;20370;-72
2022/04/05 03:17:05;;;;;;;7.15;0.85;;;12.80;68.20;;;;;;4980008;28;20046;-74
2022/04/05 03:19:30;;;;;;;10.73;1.33;;;12.70;68.20;;;;;;4996982;28;20069;-73
2022/04/05 03:21:56;;;;;;;5.63;0.93;;;12.70;68.20;;;;;;4979817;28;20062;-73
2022/04/05 03:24:22;;;;;;;7.13;1.20;;;12.70;68.20;;;;;;4979519;28;20047;-73
2022/04/05 03:26:47;;;;;;;5.07;0.90;;;12.80;68.20;;;;;;4996648;28;20063;-75
2022/04/05 03:29:13;;;;;;;7.22;1.48;;;12.70;68.10;;;;;;4996837;28;20129;-74
2022/04/05 03:31:39;;;;;;;6.38;0.95;;;12.80;68.20;;;;;;4996351;28;20054;-73
2022/04/05 03:34:04;;;;;;;4.75;0.90;;;12.80;68.20;;;;;;4980528;28;20058;-73
2022/04/05 03:36:30;;;;;;;6.43;0.98;;;12.80;68.30;;;;;;4979903;28;20046;-75
2022/04/05 03:38:56;;;;;;;4.07;0.90;;;12.70;68.90;;;;;;4996144;28;20050;-72
2022/04/05 03:41:21;;;;;;;6.20;1.13;;;12.70;68.30;;;;;;4997290;28;20038;-74
2022/04/05 03:43:47;;;;;;;4.93;1.08;;;12.70;68.40;;;;;;4996708;28;20141;-73
2022/04/05 03:46:13;;;;;;;4.80;1.27;;;12.70;68.50;;;;;;4995908;28;20053;-72
2022/04/05 03:48:38;;;;;;;6.80;1.25;;;12.70;68.50;;;;;;4979623;28;20120;-74
2022/04/05 03:51:09;;;;;;;3.15;0.73;;;12.70;68.60;;;;;;4979036;28;20050;-76
2022/04/05 03:53:36;;;;;;;5.38;1.25;;;12.70;68.60;;;;;;4979373;28;20050;-76
2022/04/05 03:56:02;;;;;;;8.15;1.20;;;12.70;68.60;;;;;;4979607;28;20058;-73
2022/04/05 03:58:28;;;;;;;6.82;1.05;;;12.70;68.50;;;;;;4996514;28;20131;-74
2022/04/05 04:00:53;;;;;;;6.85;1.00;;;12.70;68.50;;;;;;4980474;28;20097;-72
2022/04/05 04:03:19;;;;;;;3.35;0.85;;;12.70;68.50;;;;;;5015995;28;20046;-74
2022/04/05 04:05:45;;;;;;;6.68;0.90;;;12.70;68.60;;;;;;5016311;28;20077;-72
2022/04/05 04:08:11;;;;;;;7.68;0.88;;;12.70;68.60;;;;;;4998651;28;20357;-75
2022/04/05 04:10:36;;;;;;;5.65;1.40;;;12.70;68.60;;;;;;5015911;28;20046;-73
2022/04/05 04:13:02;;;;;;;4.35;0.80;;;12.70;68.70;;;;;;4998643;28;20537;-74
2022/04/05 04:15:28;;;;;;;6.57;1.48;;;12.70;68.70;;;;;;5015827;28;20052;-73
2022/04/05 04:17:53;;;;;;;5.00;1.00;;;12.70;68.60;;;;;;5016064;28;20060;-71
2022/04/05 04:20:19;;;;;;;6.00;1.23;;;12.70;68.70;;;;;;4998225;28;20049;-72
2022/04/05 04:22:45;;;;;;;4.18;0.73;;;12.70;68.60;;;;;;5015621;28;20099;-73
2022/04/05 04:25:11;;;;;;;4.32;0.93;;;12.70;68.60;;;;;;5016129;28;20041;-72
2022/04/05 04:27:37;;;;;;;6.25;0.88;;;12.70;68.60;;;;;;5015687;28;20045;-73
2022/04/05 04:30:03;;;;;;;6.10;0.90;;;12.70;68.60;;;;;;5015695;28;20339;-72
2022/04/05 04:32:29;;;;;;;4.55;0.90;;;12.70;68.60;;;;;;5000905;28;20086;-72
2022/04/05 04:34:55;;;;;;;4.30;0.70;;;12.70;68.70;;;;;;4995727;28;20092;-73
2022/04/05 04:37:20;;;;;;;2.63;0.75;;;12.70;68.70;;;;;;4995964;28;20045;-74
2022/04/05 04:39:48;;;;;;;4.53;0.90;;;12.60;68.60;;;;;;4995594;28;20422;-74
2022/04/05 04:42:13;;;;;;;7.15;0.90;;;12.60;68.70;;;;;;4995952;28;20057;-76
2022/04/05 04:44:39;;;;;;;5.80;0.73;;;12.60;68.60;;;;;;4995805;28;20066;-74
2022/04/05 04:47:06;;;;;;;4.75;0.93;;;12.70;68.70;;;;;;4995321;28;20458;-72
2022/04/05 04:49:31;;;;;;;5.70;0.95;;;12.60;68.60;;;;;;4995854;28;20054;-72
2022/04/05 04:51:57;;;;;;;4.97;0.75;;;12.70;68.60;;;;;;4978688;28;20140;-73
2022/04/05 04:54:23;;;;;;;5.40;0.70;;;12.70;68.60;;;;;;4995850;28;20053;-75
2022/04/05 04:56:48;;;;;;;5.53;0.90;;;12.70;68.50;;;;;;4993267;28;20430;-75
2022/04/05 04:59:14;;;;;;;3.45;0.70;;;12.80;68.40;;;;;;4979140;28;20060;-73
2022/04/05 05:01:40;;;;;;;4.05;1.00;;;12.90;68.20;;;;;;4987978;28;20362;-73
2022/04/05 05:04:05;;;;;;;2.80;1.00;;;12.90;67.80;;;;;;4999057;28;20123;-74
2022/04/05 05:06:31;;;;;;;5.95;1.10;;;13.00;67.60;;;;;;4982261;28;20046;-76
2022/04/05 05:08:57;;;;;;;5.30;2.75;;;13.10;67.20;;;;;;4997173;28;20041;-77
2022/04/05 05:11:23;;;;;;;5.43;1.20;;;13.10;67.30;;;;;;4999403;28;20058;-74
2022/04/05 05:13:49;;;;;;;4.82;0.85;;;13.20;67.20;;;;;;4999420;28;20038;-76
2022/04/05 05:16:15;;;;;;;3.22;0.75;;;13.20;67.00;;;;;;4982045;28;20038;-75
2022/04/05 05:18:40;;;;;;;6.22;1.00;;;13.30;66.70;;;;;;4999211;28;20038;-75
2022/04/05 05:21:06;;;;;;;8.35;1.77;;;13.30;66.10;;;;;;4965735;28;20058;-76
2022/04/05 05:23:35;;;;;;;11.38;1.55;;;13.40;66.10;;;;;;4999408;28;20038;-79
2022/04/05 05:26:00;;;;;;;5.38;0.90;;;13.30;66.40;;;;;;4966429;28;20049;-74
2022/04/05 05:28:26;;;;;;;5.28;1.27;;;13.40;66.60;;;;;;4998990;28;20034;-77
2022/04/05 05:30:52;;;;;;;5.55;1.08;;;13.40;66.00;;;;;;5005829;28;20093;-81
2022/04/05 05:33:17;;;;;;;4.75;0.80;;;13.60;65.70;;;;;;5001126;28;20450;-77
2022/04/05 05:35:43;;;;;;;3.35;0.68;;;13.80;65.40;;;;;;4992381;28;20116;-75
2022/04/05 05:38:14;;;;;;;5.93;0.55;;;14.10;65.20;;;;;;4999094;28;20053;-77
2022/04/05 05:40:40;;;;;;;5.18;0.70;;;14.40;65.00;;;;;;4965399;28;20093;-76
2022/04/05 05:43:06;;;;;;;4.97;0.45;;;14.60;64.70;;;;;;4981552;28;20144;-76
2022/04/05 05:45:35;;;;;;;3.53;0.50;;;14.80;64.30;;;;;;4966092;28;20053;-76
2022/04/05 05:48:05;;;;;;;5.25;0.60;;;15.00;64.10;;;;;;4965418;28;20394;-76
2022/04/05 05:50:31;;;;;;;5.57;0.60;;;15.10;63.80;;;;;;4998775;28;20034;-76
2022/04/05 05:52:59;;;;;;;2.67;0.50;;;15.20;63.70;;;;;;4998606;28;20046;-77
2022/04/05 05:55:25;;;;;;;4.40;0.90;;;15.20;63.60;;;;;;4981520;28;20529;-75
2022/04/05 05:57:50;;;;;;;2.28;0.55;;;15.30;63.50;;;;;;4981518;28;20050;-75
2022/04/05 06:00:22;;;;;;;3.60;0.70;;;15.40;63.40;;;;;;4981404;28;20046;-76
2022/04/05 06:02:51;;;;;;;2.65;0.50;;;15.40;63.30;;;;;;4982422;28;20432;-75
2022/04/05 06:09:00;;;;;;;5.93;0.50;;;15.30;63.60;;;;;;4998248;28;20041;-74
2022/04/05 06:11:26;;;;;;;16.33;0.93;;;15.50;64.00;;;;;;4981272;28;20373;-74
2022/04/05 06:13:52;;;;;;;6.55;1.55;;;15.60;63.80;;;;;;4997851;28;20038;-74
2022/04/05 06:16:21;;;;;;;7.57;0.52;;;15.70;63.30;;;;;;4965007;28;20057;-75
2022/04/05 06:18:49;;;;;;;4.38;0.70;;;15.70;62.80;;;;;;4998274;28;20050;-75
2022/04/05 06:21:16;;;;;;;5.47;1.15;;;15.80;62.60;;;;;;4980579;28;20053;-74
2022/04/05 06:23:42;;;;;;;3.85;0.47;;;15.70;62.50;;;;;;4997960;28;20121;-75
2022/04/05 06:26:08;;;;;;;3.92;0.80;;;15.80;62.50;;;;;;4949030;28;20177;-74
2022/04/05 06:28:34;;;;;;;4.38;0.60;;;15.80;62.50;;;;;;4997923;28;20039;-75
2022/04/05 06:31:00;;;;;;;4.85;0.73;;;15.80;62.40;;;;;;4997732;28;20430;-74
2022/04/05 06:33:25;;;;;;;4.47;0.47;;;15.80;62.30;;;;;;4981423;28;20121;-74
2022/04/05 06:35:57;;;;;;;2.90;0.50;;;15.80;62.30;;;;;;4998256;28;20113;-76
2022/04/05 06:38:23;;;;;;;2.80;0.50;;;15.70;62.20;;;;;;4980865;28;20042;-73
2022/04/05 06:40:50;;;;;;;5.00;0.80;;;15.80;62.20;;;;;;4964333;28;20101;-73
2022/04/05 06:43:23;;;;;;;5.85;0.77;;;15.80;62.30;;;;;;4997468;28;20125;-70
2022/04/05 06:45:50;;;;;;;2.67;0.47;;;15.80;62.40;;;;;;4998882;28;20468;-71
2022/04/05 06:48:15;;;;;;;7.07;1.08;;;15.80;62.50;;;;;;4995698;28;20125;-73
2022/04/05 06:50:42;;;;;;;3.42;0.35;;;15.80;62.50;;;;;;4997274;28;20122;-76
2022/04/05 06:53:08;;;;;;;5.35;0.43;;;15.80;62.60;;;;;;4997405;28;20049;-77
2022/04/05 06:55:35;;;;;;;4.57;0.73;;;15.80;62.80;;;;;;4980113;28;20050;-75
2022/04/05 06:58:01;;;;;;;4.90;0.63;;;15.80;62.80;;;;;;5002759;28;20049;-76
2022/04/05 07:00:27;;;;;;;5.95;0.65;;;15.80;62.90;;;;;;5003957;28;20093;-79
2022/04/05 07:02:54;;;;;;;4.40;0.52;;;15.90;62.90;;;;;;4984598;28;20058;-76
2022/04/05 07:05:21;;;;;;;7.60;1.00;;;15.90;62.90;;;;;;4971857;28;20054;-78
2022/04/05 07:07:56;;;;;;;4.20;0.63;;;15.90;63.10;;;;;;5003777;28;20089;-78
2022/04/05 07:10:22;;;;;;;4.55;0.57;;;15.90;63.10;;;;;;5002597;28;20050;-75
2022/04/05 07:12:51;;;;;;;4.57;0.75;;;15.90;63.20;;;;;;5008978;28;20068;-80
2022/04/05 07:15:17;;;;;;;3.95;0.40;;;15.90;63.20;;;;;;4977760;28;20080;-77
2022/04/05 07:17:44;;;;;;;3.00;0.57;;;15.90;63.00;;;;;;4995589;28;20081;-78
2022/04/05 07:20:10;;;;;;;4.05;0.93;;;15.90;62.90;;;;;;5003637;28;20042;-78
2022/04/05 07:22:48;;;;;;;3.40;0.38;;;15.90;63.00;;;;;;5002014;28;20085;-78
2022/04/05 07:25:15;;;;;;;2.10;0.93;;;15.90;62.90;;;;;;4987415;28;20121;-78
2022/04/05 07:27:41;;;;;;;4.35;0.52;;;15.90;62.90;;;;;;4963290;28;20043;-78
2022/04/05 07:30:07;;;;;;;3.88;0.50;;;15.90;63.00;;;;;;4979317;28;20050;-78
2022/04/05 07:32:38;;;;;;;1.92;0.30;;;16.00;63.20;;;;;;4979657;28;20050;-78
2022/04/05 07:35:04;;;;;;;3.10;0.68;;;16.00;63.00;;;;;;4979917;28;20402;-76
2022/04/05 07:37:30;;;;;;;5.35;0.47;;;16.00;63.20;;;;;;4982523;28;20034;-77
2022/04/05 07:39:58;;;;;;;3.00;0.80;;;16.00;63.20;;;;;;5016117;28;20061;-76
2022/04/05 07:42:25;;;;;;;4.10;0.55;;;16.00;63.30;;;;;;5015621;28;20060;-77
2022/04/05 07:44:50;;;;;;;4.10;0.52;;;16.00;63.30;;;;;;4979613;28;20069;-77
2022/04/05 07:47:16;;;;;;;5.55;0.35;;;16.00;63.40;;;;;;5016103;28;20105;-76
2022/04/05 07:49:42;;;;;;;3.13;0.90;;;16.00;63.30;;;;;;5015701;28;20523;-76
2022/04/05 07:52:08;;;;;;;4.63;0.70;;;16.10;63.00;;;;;;4998436;28;20346;-78
2022/04/05 07:54:33;;;;;;;4.55;0.47;;;16.10;62.90;;;;;;4998262;28;20045;-77
2022/04/05 07:57:01;;;;;;;7.05;0.80;;;16.00;62.80;;;;;;4998376;28;20045;-76
2022/04/05 07:59:26;;;;;;;2.75;0.52;;;16.00;62.80;;;;;;5015730;28;20408;-76
2022/04/05 08:01:52;;;;;;;5.43;0.50;;;15.90;62.40;;;;;;5014660;28;20041;-75
2022/04/05 08:04:18;;;;;;;4.65;0.68;;;15.90;62.80;;;;;;5016087;28;20125;-76
2022/04/05 08:06:43;;;;;;;5.95;0.32;;;15.90;62.90;;;;;;5015733;28;20057;-75
2022/04/05 08:09:09;;;;;;;1.70;0.50;;;16.00;62.90;;;;;;4998394;28;20424;-75
2022/04/05 08:11:35;;;;;;;2.85;0.40;;;16.00;62.80;;;;;;5015334;28;20064;-75
2022/04/05 08:14:01;;;;;;;2.05;0.38;;;16.00;62.80;;;;;;4998521;28;20476;-76
2022/04/05 08:16:27;;;;;;;2.30;0.50;;;16.00;62.70;;;;;;5015988;28;20080;-76
2022/04/05 08:18:53;;;;;;;1.88;0.57;;;16.00;62.70;;;;;;5015940;28;20120;-77
2022/04/05 08:21:19;;;;;;;2.70;0.60;;;15.90;62.70;;;;;;5025007;28;20077;-78
2022/04/05 08:23:45;;;;;;;2.55;0.40;;;15.90;62.60;;;;;;5006434;28;20042;-76
2022/04/05 08:26:11;;;;;;;3.03;0.68;;;15.90;62.60;;;;;;5008005;28;20479;-76
2022/04/05 08:28:37;;;;;;;1.52;0.45;;;15.80;62.60;;;;;;5013770;28;20049;-77
2022/04/05 08:31:03;;;;;;;3.58;0.50;;;15.80;62.60;;;;;;5031279;28;20037;-76
2022/04/05 08:33:28;;;;;;;1.95;0.30;;;15.80;62.60;;;;;;5015726;28;20050;-76
2022/04/05 08:35:55;;;;;;;2.40;0.30;;;15.80;62.60;;;;;;5015483;28;20042;-75
2022/04/05 08:38:21;;;;;;;2.22;0.60;;;15.80;62.60;;;;;;4997733;28;20433;-75
2022/04/05 08:40:47;;;;;;;1.65;0.30;;;15.70;62.60;;;;;;5015024;28;20064;-75
2022/04/05 08:43:13;;;;;;;1.77;0.40;;;15.70;62.60;;;;;;5014864;28;20136;-75
2022/04/05 08:45:44;;;;;;;2.85;0.43;;;15.70;62.70;;;;;;4998579;28;20537;-76
2022/04/05 08:48:12;;;;;;;2.25;0.57;;;15.70;62.70;;;;;;5015131;28;20053;-76
2022/04/05 08:50:38;;;;;;;1.38;0.20;;;15.60;62.70;;;;;;5015556;28;20058;-76
2022/04/05 08:53:04;;;;;;;2.38;0.40;;;15.60;62.70;;;;;;4997901;28;20532;-76
2022/04/05 08:55:30;;;;;;;2.20;0.43;;;15.60;62.70;;;;;;5015333;28;20096;-75
2022/04/05 08:57:56;;;;;;;1.67;0.30;;;15.60;62.70;;;;;;4998274;28;20442;-76
2022/04/05 09:00:23;;;;;;;3.90;0.20;;;15.60;62.80;;;;;;5015850;28;20041;-75
2022/04/05 09:03:00;;;;;;;2.45;0.50;;;15.50;62.70;;;;;;4995618;28;20053;-77
2022/04/05 09:05:44;;;;;;;2.25;0.60;;;15.50;62.80;;;;;;4995558;28;20046;-76
2022/04/05 09:08:23;;;;;;;1.80;0.30;;;15.50;62.70;;;;;;4992489;28;20054;-75
2022/04/05 09:10:54;;;;;;;1.52;0.40;;;15.50;62.80;;;;;;4978909;28;20054;-77
2022/04/05 09:13:23;;;;;;;1.77;0.57;;;15.50;62.80;;;;;;4995766;28;20042;-77
2022/04/05 09:15:52;;;;;;;2.95;0.68;;;15.40;62.80;;;;;;4995165;28;20065;-77
2022/04/05 09:18:39;;;;;;;0.90;0.22;;;15.40;62.80;;;;;;4993779;28;20101;-77
2022/04/05 09:21:08;;;;;;;3.00;0.55;;;15.40;62.70;;;;;;4974834;28;20421;-76
2022/04/05 09:23:43;;;;;;;1.13;0.22;;;15.40;62.80;;;;;;4994971;28;20116;-77
2022/04/05 09:26:13;;;;;;;2.25;0.45;;;15.40;62.80;;;;;;4978136;28;20058;-77
2022/04/05 09:28:48;;;;;;;3.50;0.57;;;15.40;62.90;;;;;;4962375;28;20060;-78
2022/04/05 09:31:20;;;;;;;2.15;0.32;;;15.30;62.90;;;;;;5000425;28;20073;-77
2022/04/05 09:34:05;;;;;;;1.35;0.22;;;15.30;63.00;;;;;;5011925;28;20122;-77
2022/04/05 09:36:40;;;;;;;1.55;0.52;;;15.30;62.80;;;;;;4997871;28;20038;-76
2022/04/05 09:39:26;;;;;;;0.98;0.20;;;15.30;62.90;;;;;;5014992;28;20038;-76
2022/04/05 09:42:10;;;;;;;1.13;0.25;;;15.30;62.80;;;;;;4997821;28;20401;-77
2022/04/05 09:44:39;;;;;;;1.55;0.22;;;15.30;62.90;;;;;;5012133;28;20057;-76
2022/04/05 09:47:11;;;;;;;3.47;0.40;;;15.30;63.10;;;;;;5015087;28;20081;-77
2022/04/05 09:49:41;;;;;;;1.50;0.30;;;15.30;63.30;;;;;;5016656;28;20113;-76
2022/04/05 09:52:30;;;;;;;2.47;0.30;;;15.30;63.20;;;;;;5018047;28;20049;-77
2022/04/05 09:55:16;;;;;;;1.77;0.22;;;15.30;63.10;;;;;;5017697;28;20057;-77
2022/04/05 09:57:43;;;;;;;1.15;0.20;;;15.20;63.70;;;;;;5000476;28;20132;-76
2022/04/05 10:00:17;;;;;;;1.85;0.20;;;15.20;63.20;;;;;;5014694;28;20365;-77
2022/04/05 10:03:04;;;;;;;1.55;0.30;;;15.20;63.20;;;;;;5011586;28;20127;-76
2022/04/05 10:05:32;;;;;;;1.50;0.47;;;15.20;63.10;;;;;;5017057;28;20128;-77
2022/04/05 10:07:58;;;;;;;1.90;0.28;;;15.20;63.90;;;;;;4987275;28;20065;-77
2022/04/05 10:10:26;;;;;;;1.00;0.10;;;15.20;63.40;;;;;;4981041;28;20129;-76
2022/04/05 10:12:52;;;;;;;1.02;0.28;;;15.20;63.70;;;;;;4981652;28;20113;-76
2022/04/05 10:15:21;;;;;;;4.13;0.22;;;15.20;63.70;;;;;;4997879;28;20050;-76
2022/04/05 10:17:51;;;;;;;0.93;0.32;;;15.20;63.70;;;;;;4997959;28;20129;-77
2022/04/05 10:20:17;;;;;;;2.17;0.40;;;15.20;63.80;;;;;;4997332;28;20141;-78
2022/04/05 10:22:51;;;;;;;2.50;0.20;;;15.20;63.80;;;;;;4980768;28;20050;-76
2022/04/05 10:25:16;;;;;;;2.00;0.40;;;15.20;63.70;;;;;;4998122;28;20148;-75
2022/04/05 10:27:42;;;;;;;5.45;0.60;;;15.20;63.80;;;;;;4998655;28;20081;-77
2022/04/05 10:30:21;;;;;;;6.68;0.52;;;15.20;63.90;;;;;;4996967;28;20050;-74
2022/04/05 10:33:20;;;;;;;3.92;0.22;;;15.20;64.00;;;;;;4981171;28;20416;-76
2022/04/05 10:35:54;;;;;;;1.90;0.17;;;15.20;64.20;;;;;;4991139;28;20038;-78
2022/04/05 10:38:19;;;;;;;;;;;15.20;64.20;;;;;;5000683;28;20121;-81
2022/04/05 10:41:36;;;;;;;6.78;0.60;;;15.20;64.30;;;;;;4999865;28;20252;-79
2022/04/05 10:44:46;;;;;;;10.73;0.85;;;15.20;64.90;;;;;;4962432;28;20081;-83
2022/04/05 10:47:28;;;;;;;10.68;0.93;;;15.30;64.60;;;;;;5000157;28;20041;-81
2022/04/05 10:53:37;;;;;;;5.85;0.65;;;15.30;65.00;;;;;;5016923;28;20121;-81
2022/04/05 10:56:02;;;;;;;5.65;0.60;;;15.30;65.20;;;;;;5017068;28;20042;-75
2022/04/05 10:58:49;;;;;;;2.70;0.43;;;15.30;65.20;;;;;;4998699;28;20129;-77
2022/04/05 11:01:24;;;;;;;4.97;0.80;;;15.30;65.20;;;;;;4981642;28;20457;-76
2022/04/05 11:04:18;;;;;;;4.13;0.40;;;15.40;65.20;;;;;;5016876;28;20042;-78
2022/04/05 11:06:59;;;;;;;3.65;0.40;;;15.40;64.60;;;;;;5014151;28;20045;-77
2022/04/05 11:09:28;;;;;;;6.05;0.70;;;15.40;64.50;;;;;;4981898;28;20046;-78
2022/04/05 11:11:55;;;;;;;4.78;0.60;;;15.40;64.70;;;;;;5004967;28;20049;-76
2022/04/05 11:14:41;;;;;;;5.13;0.60;;;15.50;65.10;;;;;;5016000;28;20116;-78
2022/04/05 11:17:09;;;;;;;3.05;0.35;;;15.40;65.00;;;;;;5016338;28;20052;-77
2022/04/05 11:19:38;;;;;;;3.25;0.65;;;15.40;65.10;;;;;;4999110;28;20119;-78
2022/04/05 11:22:24;;;;;;;2.13;0.50;;;15.40;65.10;;;;;;5016137;28;20484;-78
2022/04/05 11:25:03;;;;;;;4.63;0.52;;;15.30;65.00;;;;;;5009010;28;20050;-77
2022/04/05 11:27:28;;;;;;;2.05;0.40;;;15.10;65.70;;;;;;4995253;28;20054;-76
2022/04/05 11:30:28;;;;;;;2.10;0.40;;;15.00;66.40;;;;;;4997555;28;20065;-76
2022/04/05 11:33:09;;;;;;;1.90;0.50;;;15.00;66.40;;;;;;4990558;28;20128;-79
2022/04/05 11:35:49;;;;;;;1.83;0.45;;;15.10;66.40;;;;;;4979508;28;20058;-78
2022/04/05 11:38:18;;;;;;;2.72;0.30;;;15.10;66.30;;;;;;4997807;28;20132;-78
2022/04/05 11:40:46;;;;;;;1.38;0.55;;;15.10;66.70;;;;;;5015423;28;20085;-80
2022/04/05 11:43:24;;;;;;;2.95;0.70;;;15.10;67.30;;;;;;4986929;28;20048;-74
2022/04/05 11:45:52;;;;;;;4.95;0.60;;;15.20;68.80;;;;;;5035909;28;20057;-76
2022/04/05 11:48:20;;;;;;;4.22;0.77;;;15.20;68.60;;;;;;5036219;28;20037;-78
2022/04/05 11:50:47;;;;;;;10.40;0.73;;;15.30;68.70;;;;;;5036107;28;20077;-78
2022/04/05 11:53:20;;;;;;;4.18;0.70;;;15.30;69.10;;;;;;5033548;28;20315;-76
2022/04/05 11:56:13;;;;;;;1.83;0.60;;;15.30;69.30;;;;;;5035884;28;20045;-77
2022/04/05 11:58:46;;;;;;;1.85;1.20;;;15.30;68.70;;;;;;5035782;28;20057;-75
2022/04/05 12:01:13;;;;;;;2.38;0.77;;;15.30;68.10;;;;;;5000553;28;20050;-77
2022/04/05 12:03:41;;;;;;;8.32;1.40;;;15.40;67.60;;;;;;4996280;28;20042;-74
2022/04/05 12:06:07;;;;;;;5.00;0.80;;;15.30;67.10;;;;;;4996405;28;20115;-74
2022/04/05 12:08:33;;;;;;;3.67;0.98;;;15.30;67.00;;;;;;4978775;28;20042;-73
2022/04/05 12:10:59;;;;;;;4.82;1.20;;;15.30;67.00;;;;;;4996011;28;20125;-76
2022/04/05 12:13:34;;;;;;;2.55;0.95;;;15.30;67.20;;;;;;4978605;28;20046;-73
2022/04/05 12:16:06;;;;;;;3.85;1.20;;;15.30;67.20;;;;;;4978538;28;20424;-75
2022/04/05 12:18:32;;;;;;;3.38;1.20;;;15.30;67.80;;;;;;4995320;28;20054;-76
2022/04/05 12:21:01;;;;;;;3.08;1.17;;;15.20;67.20;;;;;;4979236;28;20058;-73
2022/04/05 12:23:38;;;;;;;5.28;0.98;;;15.20;67.20;;;;;;4978879;28;20129;-74
2022/04/05 12:26:09;;;;;;;4.10;1.08;;;15.20;67.10;;;;;;4995520;28;20137;-76
2022/04/05 12:28:37;;;;;;;2.13;0.82;;;15.20;67.10;;;;;;4995758;28;20089;-75
2022/04/05 12:31:17;;;;;;;1.58;0.60;;;15.20;67.00;;;;;;4995388;28;20058;-74
2022/04/05 12:34:13;;;;;;;4.00;0.98;;;15.20;66.60;;;;;;4995724;28;20046;-74
2022/04/05 12:36:43;;;;;;;3.50;0.82;;;15.20;66.20;;;;;;4979561;28;20137;-75
2022/04/05 12:39:24;;;;;;;3.75;1.10;;;15.20;66.40;;;;;;4995680;28;20050;-75
2022/04/05 12:41:53;;;;;;;4.43;1.23;;;15.30;66.50;;;;;;4996008;28;20112;-75
2022/04/05 12:44:21;;;;;;;2.75;0.80;;;15.30;66.50;;;;;;4978439;28;20143;-71
2022/04/05 12:46:53;;;;;;;4.38;1.20;;;15.50;66.50;;;;;;4994506;28;20054;-77
2022/04/05 12:49:24;;;;;;;3.03;0.88;;;15.60;66.40;;;;;;4995961;28;20058;-76
2022/04/05 12:51:51;;;;;;;2.78;0.93;;;15.80;66.30;;;;;;4995721;28;20137;-75
2022/04/05 12:54:31;;;;;;;3.03;0.82;;;15.90;66.10;;;;;;4995983;28;20042;-73
2022/04/05 12:57:15;;;;;;;4.57;0.82;;;16.00;66.10;;;;;;4995557;28;20125;-74
2022/04/05 12:59:41;;;;;;;3.92;1.15;;;16.00;66.00;;;;;;4994778;28;20050;-75
2022/04/05 13:02:25;;;;;;;3.50;1.33;;;16.10;65.90;;;;;;4979314;28;20116;-75
2022/04/05 13:06:19;;;;;;;;;;;16.20;66.00;;;;;;4995987;28;20038;-75